Huron Regional Airport
KHON : now visible

Airfield :











YOU CAN JOIN US ON...

 
LOGIN :

Register | Disclaimer

   EN    FR    IT 

 









Legend :    VFR   Marginal VFR   IFR   Intensive IFR   Very Intensive IFR
Visi :
Ceiling :
>= 8 km
>= 3000ft
5 to 8 km
1000 to 3000 ft
1500m to 5 km
500 to 1000 ft
800 to 1500m
200 to 500 ft
< 800m
< 200 ft
Symbols :   Thunderstorms  Fog  Heavy snow  Heavy precipitations  Wind > 20 kt






- Airport Elevation : 1289 ft
- IATA code : HON


KHON - Huron Regional

CURRENT METAR :
  • 060504Z AUTO 06013KT 10SM FEW080 BKN110 24/17 A2998 RMK AO2 WSHFT 0444 T02390167

EXPIRED METARs :
  • 060455Z AUTO 04012KT 10SM BKN110 24/17 A2998 RMK AO2 TSB08E34 SLP141 T02440172
  • 060450Z AUTO 36010G19KT 10SM BKN110 24/17 A2998 RMK AO2 TSB08E34 TSNO
  • 060440Z AUTO 33012G21KT 10SM FEW120 24/17 A2997 RMK AO2 TSB08E34 PRESRR T02440167
  • 060408Z AUTO 01004G18KT 10SM TS FEW120 26/13 A2984 RMK AO2 LTG DSNT NW TSB08 T02560133
  • 060355Z AUTO 27007KT 10SM FEW040 26/13 A2983 RMK AO2 PK WND 21028/0312 LTG DSNT W AND NW RAE45 TSB30E48 SLP090 P0001 T02610133
  • 060330Z AUTO 17015KT 10SM -TSRA SCT048 BKN080 OVC120 28/12 A2983 RMK AO2 PK WND 21028/0312 LTG DSNT W AND NW TSB30 PRESFR P0001 T02830117
  • 060255Z AUTO 21011G22KT 10SM -RA FEW049 27/12 A2987 RMK AO2 PK WND 22032/0243 PRESFR SLP103 P0000 60000 T02720122 58013

TAF KHON
Valid from the 06 at 06:00 until the 07 at 06:00 UTC


060520Z 0606/0706 VRB05G15KT P6SM -SHRA SCT120
FM060800 VRB05G15KT P6SM -SHRA VCTS SCT060CB
FM061200 15010G15KT P6SM SCT150
FM070100 01010KT P6SM VCTS SCT060CB
KZMP FIR / North America



MET'MAP, your aeronautical weather chart ! - Copyright ORBIFLY December 2007 - Disclaimer

ORBIFLY MET'MAP TEAM :

Programming & Development : Alexandra Zaïnal
Concept & original design : Baudouin d'Aumeries
Assistance for programming : Marc-Olivier Méhu
Technical & hardware support : Manuel Goepfert

Contact : metmap@orbifly.com




SOURCES & CREDITS :

   NOAA       Earth
Advisory